Montebello, Virginia
Current Conditions -  °F | °C
As of 7:15 PM on Wednesday 28 Jan 2015 (Local Time) from KW13 Reporting Station
Clear Clear  
Wind Chill: 28°   Ceiling: Unl
Heat Index: 28°   Visibility: 10mi
Dew Point:   Wind: 0mph
Humidity: 36%   Direction: NA
Pressure: 30.26"   Gusts: NA
Location:  37.86°N, 79.14°W
Report Text: KW13 290015Z AUTO 00000KT 10SM CLR M02/M15 A3026 RMK AO1 T10211153
Loading
Personal Weather Stations






























Interactive Weather Map New forecast layout! Learn more

10-Day Weather Forecast

Advertisements
Track Severe Weather on mobile